sensor_id;sensor_type;location;lat;lon;timestamp;pressure;altitude;pressure_sealevel;temperature
77385;BMP280;66444;49.680;18.538;2023-08-24T00:02:36;97660.06622662352;;;17.257881310163064
77385;BMP280;66444;49.680;18.538;2023-08-24T00:07:39;97658.88677352367;;;17.12581364111975
77385;BMP280;66444;49.680;18.538;2023-08-24T00:12:41;97667.3220644355;;;17.0750173360575
77385;BMP280;66444;49.680;18.538;2023-08-24T00:17:44;97668.10943282029;;;17.151211575372145
77385;BMP280;66444;49.680;18.538;2023-08-24T00:22:52;97663.89077101281;;;17.17660936410539
77385;BMP280;66444;49.680;18.538;2023-08-24T00:27:55;97662.35233159726;;;17.16645026607439
77385;BMP280;66444;49.680;18.538;2023-08-24T00:32:58;97664.2630466915;;;17.12581364111975
77385;BMP280;66444;49.680;18.538;2023-08-24T00:38:01;97661.92657278884;;;17.003901531081645
77385;BMP280;66444;49.680;18.538;2023-08-24T00:43:04;97656.50673993873;;;16.86166649851948
77385;BMP280;66444;49.680;18.538;2023-08-24T00:48:17;97661.0709830441;;;16.749907200084998
77385;BMP280;66444;49.680;18.538;2023-08-24T00:53:21;97664.10468549484;;;16.66354581261985
77385;BMP280;66444;49.680;18.538;2023-08-24T00:58:41;97662.54919587112;;;16.617824397049844
77385;BMP280;66444;49.680;18.538;2023-08-24T01:03:47;97658.71673863835;;;16.62798475236632
77385;BMP280;66444;49.680;18.538;2023-08-24T01:08:50;97663.3023605202;;;16.587343191402034
77385;BMP280;66444;49.680;18.538;2023-08-24T01:13:55;97659.47023757127;;;16.5975036165677
77385;BMP280;66444;49.680;18.538;2023-08-24T01:19:06;97652.16614980961;;;16.567022271221504
77385;BMP280;66444;49.680;18.538;2023-08-24T01:24:21;97645.25544309865;;;16.55686177620664
77385;BMP280;66444;49.680;18.538;2023-08-24T01:29:34;97644.84555577875;;;16.50097863744013
77385;BMP280;66444;49.680;18.538;2023-08-24T01:34:38;97651.70135246876;;;16.404451557016
77385;BMP280;66444;49.680;18.538;2023-08-24T01:39:42;97643.21342804268;;;16.313002910930663
77385;BMP280;66444;49.680;18.538;2023-08-24T01:44:54;97657.03165389567;;;16.333324995264412
77385;BMP280;66444;49.680;18.538;2023-08-24T01:50:02;97659.3210012632;;;16.313002910930663
77385;BMP280;66444;49.680;18.538;2023-08-24T01:55:07;97656.28183878236;;;16.36380794714205
77385;BMP280;66444;49.680;18.538;2023-08-24T02:00:11;97668.95634219224;;;16.394290689472108
77385;BMP280;66444;49.680;18.538;2023-08-24T02:05:15;97662.4413450995;;;16.404451557016
77385;BMP280;66444;49.680;18.538;2023-08-24T02:10:23;97660.11153481476;;;16.3536469864659
77385;BMP280;66444;49.680;18.538;2023-08-24T02:15:26;97655.47099475401;;;16.28760017454624
77385;BMP280;66444;49.680;18.538;2023-08-24T02:20:29;97653.86535010171;;;16.17074571289122
77385;BMP280;66444;49.680;18.538;2023-08-24T02:25:41;97658.39159778212;;;16.058968998724595
77385;BMP280;66444;49.680;18.538;2023-08-24T02:30:45;97657.54478666023;;;15.94718946730718
77385;BMP280;66444;49.680;18.538;2023-08-24T02:35:58;97652.86862226074;;;15.845569266751408
77385;BMP280;66444;49.680;18.538;2023-08-24T02:41:02;97651.27136120548;;;15.764271429926158
77385;BMP280;66444;49.680;18.538;2023-08-24T02:46:12;97655.03538752194;;;15.682972102984786
77385;BMP280;66444;49.680;18.538;2023-08-24T02:51:14;97658.85789654434;;;15.672809582343325
77385;BMP280;66444;49.680;18.538;2023-08-24T02:56:18;97655.77547440788;;;15.65248447121121
77385;BMP280;66444;49.680;18.538;2023-08-24T03:01:20;97648.9011464614;;;15.677890845574439
77385;BMP280;66444;49.680;18.538;2023-08-24T03:06:23;97654.63490663137;;;15.6626470384188
77385;BMP280;66444;49.680;18.538;2023-08-24T03:11:33;97658.05636489;;;15.632159266946838
77385;BMP280;66444;49.680;18.538;2023-08-24T03:16:37;97654.2648214755;;;15.677890845574439
77385;BMP280;66444;49.680;18.538;2023-08-24T03:21:40;97649.67166695386;;;15.682972102984786
77385;BMP280;66444;49.680;18.538;2023-08-24T03:26:43;97646.92916576902;;;15.611833969550208
77385;BMP280;66444;49.680;18.538;2023-08-24T03:31:51;97653.30262946273;;;15.459391270484776
77385;BMP280;66444;49.680;18.538;2023-08-24T03:36:54;97654.03959056629;;;15.428902102028951
77385;BMP280;66444;49.680;18.538;2023-08-24T03:41:57;97657.12279998977;;;15.449228237615898
77385;BMP280;66444;49.680;18.538;2023-08-24T03:47:00;97660.17195816629;;;15.433983644656838
77385;BMP280;66444;49.680;18.538;2023-08-24T03:52:04;97656.28296098264;;;15.373004748951644
77385;BMP280;66444;49.680;18.538;2023-08-24T03:57:12;97654.70582590341;;;15.327270027110353
77385;BMP280;66444;49.680;18.538;2023-08-24T04:02:20;97654.70582590341;;;15.327270027110353
77385;BMP280;66444;49.680;18.538;2023-08-24T04:07:23;97653.97035651784;;;15.357759894058109
77385;BMP280;66444;49.680;18.538;2023-08-24T04:12:25;97654.44195145258;;;15.449228237615898
77385;BMP280;66444;49.680;18.538;2023-08-24T04:17:27;97660.94280520103;;;15.439065181463956
77385;BMP280;66444;49.680;18.538;2023-08-24T04:22:29;97660.13733667758;;;15.398412724025548
77385;BMP280;66444;49.680;18.538;2023-08-24T04:27:32;97665.49860551357;;;15.398412724025548
77385;BMP280;66444;49.680;18.538;2023-08-24T04:32:34;97663.95675889908;;;15.388249551458284
77385;BMP280;66444;49.680;18.538;2023-08-24T04:37:36;97656.31774915046;;;15.408575873309747
77385;BMP280;66444;49.680;18.538;2023-08-24T04:42:44;97661.01035431316;;;15.510206085583196
77385;BMP280;66444;49.680;18.538;2023-08-24T04:47:46;97645.81908182132;;;15.657565757725388
77385;BMP280;66444;49.680;18.538;2023-08-24T04:52:49;97655.89413997614;;;15.794758293358608
77385;BMP280;66444;49.680;18.538;2023-08-24T04:57:56;97652.27854062979;;;16.089453836530446
77385;BMP280;66444;49.680;18.538;2023-08-24T05:02:58;97647.77110973862;;;16.23679426521994
77385;BMP280;66444;49.680;18.538;2023-08-24T05:08:01;97651.77296035578;;;16.546701257908715
77385;BMP280;66444;49.680;18.538;2023-08-24T05:13:10;97657.25068164425;;;16.79562725359574
77385;BMP280;66444;49.680;18.538;2023-08-24T05:18:13;97654.25329156176;;;17.02422044891864
77385;BMP280;66444;49.680;18.538;2023-08-24T05:23:15;97668.92433417925;;;17.40518291434273
77385;BMP280;66444;49.680;18.538;2023-08-24T05:28:17;97673.55379627347;;;17.613428553659467
77385;BMP280;66444;49.680;18.538;2023-08-24T05:33:25;97675.08932328789;;;17.872452156804503
77385;BMP280;66444;49.680;18.538;2023-08-24T05:38:28;97675.066026714;;;18.08575434437953
77385;BMP280;66444;49.680;18.538;2023-08-24T05:43:31;97680.41772484059;;;18.263498323876412
77385;BMP280;66444;49.680;18.538;2023-08-24T05:48:33;97669.58398105873;;;18.476781687093897
77385;BMP280;66444;49.680;18.538;2023-08-24T05:53:35;97674.87759374567;;;18.7255993001163
77385;BMP280;66444;49.680;18.538;2023-08-24T05:58:38;97678.2005962974;;;19.0150226123631
77385;BMP280;66444;49.680;18.538;2023-08-24T06:03:40;97679.97932236154;;;19.25873283855617
77385;BMP280;66444;49.680;18.538;2023-08-24T06:08:43;97682.95034296371;;;19.421198872104288
77385;BMP280;66444;49.680;18.538;2023-08-24T06:13:46;97678.18410039908;;;19.603966035228222
77385;BMP280;66444;49.680;18.538;2023-08-24T06:18:48;97677.23450466155;;;19.812108338484542
77385;BMP280;66444;49.680;18.538;2023-08-24T06:23:51;97685.53505985855;;;20.01008827826008
77385;BMP280;66444;49.680;18.538;2023-08-24T06:28:53;97687.65424587893;;;20.202983293542637
77385;BMP280;66444;49.680;18.538;2023-08-24T06:34:00;97684.31278681151;;;20.43140073083341
77385;BMP280;66444;49.680;18.538;2023-08-24T06:39:04;97694.05858831617;;;20.675033005326988
77385;BMP280;66444;49.680;18.538;2023-08-24T06:44:06;97679.85163113255;;;20.90342608271167
77385;BMP280;66444;49.680;18.538;2023-08-24T06:49:14;97675.66836663325;;;21.12673236131668
77385;BMP280;66444;49.680;18.538;2023-08-24T06:54:16;97674.63316275628;;;21.299279494630174
77385;BMP280;66444;49.680;18.538;2023-08-24T06:59:28;97676.64501960741;;;21.492118327878416
77385;BMP280;66444;49.680;18.538;2023-08-24T07:04:31;97681.70186186317;;;21.705246206792072
77385;BMP280;66444;49.680;18.538;2023-08-24T07:09:34;97686.74237994908;;;21.918363817874344
77385;BMP280;66444;49.680;18.538;2023-08-24T07:14:37;97688.70795179287;;;22.111175666050986
77385;BMP280;66444;49.680;18.538;2023-08-24T07:19:44;97696.42722920254;;;22.32427371935919
77385;BMP280;66444;49.680;18.538;2023-08-24T07:24:47;97696.83428621515;;;22.50692102126777
77385;BMP280;66444;49.680;18.538;2023-08-24T07:29:49;97698.41106309406;;;22.679414324136452
77385;BMP280;66444;49.680;18.538;2023-08-24T07:34:52;97696.42014728158;;;22.8823390068952
77385;BMP280;66444;49.680;18.538;2023-08-24T07:39:55;97698.31060788353;;;23.075108829140664
77385;BMP280;66444;49.680;18.538;2023-08-24T07:44:57;97700.69408961633;;;23.217144372407347
77385;BMP280;66444;49.680;18.538;2023-08-24T07:50:01;97697.63923449258;;;23.359175352193414
77385;BMP280;66444;49.680;18.538;2023-08-24T07:55:06;97694.91147654933;;;23.521490884013474
77385;BMP280;66444;49.680;18.538;2023-08-24T08:00:14;97691.31585698039;;;23.71423283643089
77385;BMP280;66444;49.680;18.538;2023-08-24T08:05:17;97698.76078271645;;;23.83596026520245
77385;BMP280;66444;49.680;18.538;2023-08-24T08:10:24;97705.15161172803;;;24.059118510084225
77385;BMP280;66444;49.680;18.538;2023-08-24T08:15:32;97707.90999420057;;;24.185907946992664
77385;BMP280;66444;49.680;18.538;2023-08-24T08:20:34;97712.61926587665;;;24.307622383814305
77385;BMP280;66444;49.680;18.538;2023-08-24T08:25:37;97706.54612269005;;;24.393834748025984
77385;BMP280;66444;49.680;18.538;2023-08-24T08:30:39;97706.13411960783;;;24.535827916115522
77385;BMP280;66444;49.680;18.538;2023-08-24T08:35:43;97706.79206897906;;;24.576396554522216
77385;BMP280;66444;49.680;18.538;2023-08-24T08:40:45;97706.58148790085;;;24.647390775335953
77385;BMP280;66444;49.680;18.538;2023-08-24T08:45:51;97708.33149051393;;;24.840083623770624
77385;BMP280;66444;49.680;18.538;2023-08-24T08:51:02;97703.85920416086;;;25.027697531459854
77385;BMP280;66444;49.680;18.538;2023-08-24T08:56:04;97702.75893101134;;;25.12910713669844
77385;BMP280;66444;49.680;18.538;2023-08-24T09:01:09;97704.81562048465;;;25.215303470520304
77385;BMP280;66444;49.680;18.538;2023-08-24T09:06:17;97703.06146525705;;;25.27614692864008
77385;BMP280;66444;49.680;18.538;2023-08-24T09:11:20;97694.97842582491;;;25.36741054421291
77385;BMP280;66444;49.680;18.538;2023-08-24T09:16:24;97696.02520971878;;;25.51951237921603
77385;BMP280;66444;49.680;18.538;2023-08-24T09:21:31;97694.33697440548;;;25.671608975529672
77385;BMP280;66444;49.680;18.538;2023-08-24T09:26:44;97689.8427002046;;;25.73244614722207
77385;BMP280;66444;49.680;18.538;2023-08-24T09:31:51;97685.41187677335;;;25.884535409370436
77385;BMP280;66444;49.680;18.538;2023-08-24T09:36:54;97691.24411323573;;;25.9960642054677
77385;BMP280;66444;49.680;18.538;2023-08-24T09:42:00;97688.31540970577;;;26.15828287974
77385;BMP280;66444;49.680;18.538;2023-08-24T09:47:03;97682.59729957145;;;26.22925167544745
77385;BMP280;66444;49.680;18.538;2023-08-24T09:52:11;97681.16929631791;;;26.401599715277552
77385;BMP280;66444;49.680;18.538;2023-08-24T09:57:16;97681.21033442288;;;26.492840071069075
77385;BMP280;66444;49.680;18.538;2023-08-24T10:02:20;97686.98028941826;;;26.513115449575707
77385;BMP280;66444;49.680;18.538;2023-08-24T10:07:30;97687.46663038389;;;26.589147289516404
77385;BMP280;66444;49.680;18.538;2023-08-24T10:12:36;97680.41072596207;;;26.7969609697815
77385;BMP280;66444;49.680;18.538;2023-08-24T10:17:45;97676.80231518477;;;26.918603461934254
77385;BMP280;66444;49.680;18.538;2023-08-24T10:22:50;97676.51451114057;;;26.989560034032912
77385;BMP280;66444;49.680;18.538;2023-08-24T10:27:53;97672.87885588611;;;27.0199696442578
77385;BMP280;66444;49.680;18.538;2023-08-24T10:32:57;97673.33118375325;;;27.004764865338803
77385;BMP280;66444;49.680;18.538;2023-08-24T10:38:01;97673.18600738657;;;27.040242601325737
77385;BMP280;66444;49.680;18.538;2023-08-24T10:43:05;97665.00512073479;;;27.131469755619765
77385;BMP280;66444;49.680;18.538;2023-08-24T10:48:07;97661.81985629033;;;27.146674097981304
77385;BMP280;66444;49.680;18.538;2023-08-24T10:53:17;97649.23290954786;;;27.35446152659133
77385;BMP280;66444;49.680;18.538;2023-08-24T10:58:39;97643.61115255147;;;27.481156376050784
77385;BMP280;66444;49.680;18.538;2023-08-24T11:03:42;97644.51762646635;;;27.54196861158125
77385;BMP280;66444;49.680;18.538;2023-08-24T11:09:04;97637.53991231373;;;27.440614420035853
77385;BMP280;66444;49.680;18.538;2023-08-24T11:14:15;97639.51681384556;;;27.34432578147389
77385;BMP280;66444;49.680;18.538;2023-08-24T11:19:19;97631.30733248178;;;27.526765631278977
77385;BMP280;66444;49.680;18.538;2023-08-24T11:24:22;97627.64621181718;;;27.648388006864117
77385;BMP280;66444;49.680;18.538;2023-08-24T11:29:32;97631.28112702437;;;27.709197937371208
77385;BMP280;66444;49.680;18.538;2023-08-24T11:34:34;97633.39804223017;;;27.759872239176183
77385;BMP280;66444;49.680;18.538;2023-08-24T11:39:37;97617.3103215792;;;27.68892805366777
77385;BMP280;66444;49.680;18.538;2023-08-24T11:44:44;97621.26152477012;;;27.678793076891452
77385;BMP280;66444;49.680;18.538;2023-08-24T11:49:48;97615.7504450722;;;27.861219096556304
77385;BMP280;66444;49.680;18.538;2023-08-24T11:54:51;97617.53729814813;;;27.982832252047956
77385;BMP280;66444;49.680;18.538;2023-08-24T11:59:54;97619.31834669398;;;28.10444205477834
77385;BMP280;66444;49.680;18.538;2023-08-24T12:04:59;97603.49407931694;;;28.144977910630406
77385;BMP280;66444;49.680;18.538;2023-08-24T12:10:02;97607.15460135395;;;28.11457605366595
77385;BMP280;66444;49.680;18.538;2023-08-24T12:15:14;97596.75994388999;;;28.24631592044607
77385;BMP280;66444;49.680;18.538;2023-08-24T12:20:22;97603.1591411872;;;28.215914761973544
77385;BMP280;66444;49.680;18.538;2023-08-24T12:25:25;97590.01913092384;;;28.347651601955295
77385;BMP280;66444;49.680;18.538;2023-08-24T12:30:28;97589.33105918676;;;28.4895176445134
77385;BMP280;66444;49.680;18.538;2023-08-24T12:35:31;97587.2943574507;;;28.585781288705768
77385;BMP280;66444;49.680;18.538;2023-08-24T12:40:34;97574.58919105488;;;28.7023081518244
77385;BMP280;66444;49.680;18.538;2023-08-24T12:45:37;97578.12817466704;;;28.85429508490488
77385;BMP280;66444;49.680;18.538;2023-08-24T12:50:40;97567.61777075463;;;29.371011471981184
77385;BMP280;66444;49.680;18.538;2023-08-24T12:55:43;97566.8274648916;;;29.806627253070474
77385;BMP280;66444;49.680;18.538;2023-08-24T13:00:46;97549.29915031395;;;29.928186764381827
77385;BMP280;66444;49.680;18.538;2023-08-24T13:05:49;97545.6427366503;;;30.363747481023893
77385;BMP280;66444;49.680;18.538;2023-08-24T13:10:52;97536.83942970612;;;30.98662578179501
77385;BMP280;66444;49.680;18.538;2023-08-24T13:15:54;97534.30576167803;;;31.948622434213757
77385;BMP280;66444;49.680;18.538;2023-08-24T13:20:57;97535.07300919268;;;32.65732761314139
77385;BMP280;66444;49.680;18.538;2023-08-24T13:26:00;97524.01717567837;;;33.71511091543361
77385;BMP280;66444;49.680;18.538;2023-08-24T13:31:04;97521.86582623317;;;34.57532130084
77385;BMP280;66444;49.680;18.538;2023-08-24T13:36:07;97521.90133282586;;;35.17230960307643
77385;BMP280;66444;49.680;18.538;2023-08-24T13:41:10;97509.5774857318;;;35.42524630087428
77385;BMP280;66444;49.680;18.538;2023-08-24T13:46:13;97513.26607548216;;;35.50618297080509
77385;BMP280;66444;49.680;18.538;2023-08-24T13:51:16;97515.65097800683;;;35.84003098327666
77385;BMP280;66444;49.680;18.538;2023-08-24T13:56:19;97510.27594088875;;;36.10304489256814
77385;BMP280;66444;49.680;18.538;2023-08-24T14:01:21;97498.14332603199;;;36.13339163851924
77385;BMP280;66444;49.680;18.538;2023-08-24T14:06:24;97500.67818637975;;;36.30029499558732
77385;BMP280;66444;49.680;18.538;2023-08-24T14:11:37;97505.2241435573;;;36.78073896658607
77385;BMP280;66444;49.680;18.538;2023-08-24T14:16:40;97496.11852462814;;;36.644197076186536
77385;BMP280;66444;49.680;18.538;2023-08-24T14:21:43;97481.97349453457;;;36.81108103264123
77385;BMP280;66444;49.680;18.538;2023-08-24T14:26:46;97487.12361962195;;;36.26489178286865
77385;BMP280;66444;49.680;18.538;2023-08-24T14:31:49;97492.37755440315;;;36.113160497834905
77385;BMP280;66444;49.680;18.538;2023-08-24T14:36:52;97496.6843409346;;;36.76051080613397
77385;BMP280;66444;49.680;18.538;2023-08-24T14:41:55;97487.76253695601;;;36.96278821970336
77385;BMP280;66444;49.680;18.538;2023-08-24T14:46:58;97491.61462077408;;;36.29523741123266
77385;BMP280;66444;49.680;18.538;2023-08-24T14:52:06;97494.52625105424;;;36.37110056537203
77385;BMP280;66444;49.680;18.538;2023-08-24T14:57:09;97487.27000412498;;;36.65936860688962
77385;BMP280;66444;49.680;18.538;2023-08-24T15:02:12;97487.14055579;;;36.58351042950526
77385;BMP280;66444;49.680;18.538;2023-08-24T15:07:14;97471.02389580691;;;35.688285029912365
77385;BMP280;66444;49.680;18.538;2023-08-24T15:12:17;97464.97517023243;;;35.89061180357821
77385;BMP280;66444;49.680;18.538;2023-08-24T15:17:25;97467.82020043411;;;36.527880267053845
77385;BMP280;66444;49.680;18.538;2023-08-24T15:22:28;97473.4278862791;;;36.15362268607132
77385;BMP280;66444;49.680;18.538;2023-08-24T15:27:31;97481.35820446844;;;36.24466124754399
77385;BMP280;66444;49.680;18.538;2023-08-24T15:32:39;97483.46924508148;;;36.82119500809349
77385;BMP280;66444;49.680;18.538;2023-08-24T15:37:52;97458.60046600531;;;36.765567854978144
77385;BMP280;66444;49.680;18.538;2023-08-24T15:42:55;97444.68741042449;;;35.80968221169896
77385;BMP280;66444;49.680;18.538;2023-08-24T15:48:05;97445.7866984732;;;35.536533837858585
77385;BMP280;66444;49.680;18.538;2023-08-24T15:53:08;97438.84125991912;;;36.032235003774986
77385;BMP280;66444;49.680;18.538;2023-08-24T15:58:11;97438.61551041764;;;35.63770188130438
77385;BMP280;66444;49.680;18.538;2023-08-24T16:03:13;97434.19000441;;;36.113160497834905
77385;BMP280;66444;49.680;18.538;2023-08-24T16:08:16;97424.76394382743;;;36.64925425890833
77385;BMP280;66444;49.680;18.538;2023-08-24T16:13:20;97417.11034810959;;;36.84142288914882
77385;BMP280;66444;49.680;18.538;2023-08-24T16:18:23;97413.47439635861;;;36.76051080613397
77385;BMP280;66444;49.680;18.538;2023-08-24T16:23:31;97405.97950318424;;;36.57845317111351
77385;BMP280;66444;49.680;18.538;2023-08-24T16:28:35;97403.04722003342;;;36.05246651698835
77385;BMP280;66444;49.680;18.538;2023-08-24T16:33:37;97400.67459340724;;;35.58711815061979
77385;BMP280;66444;49.680;18.538;2023-08-24T16:38:41;97390.92396523418;;;35.33419076604768
77385;BMP280;66444;49.680;18.538;2023-08-24T16:43:44;97390.26024749286;;;35.03065869603306
77385;BMP280;66444;49.680;18.538;2023-08-24T16:48:47;97391.15570786998;;;34.62591667305678
77385;BMP280;66444;49.680;18.538;2023-08-24T16:53:50;97382.50445503999;;;34.11993675744161
77385;BMP280;66444;49.680;18.538;2023-08-24T16:58:53;97383.37912066843;;;33.38110155132599
77385;BMP280;66444;49.680;18.538;2023-08-24T17:03:56;97389.51203294468;;;32.419417881499974
77385;BMP280;66444;49.680;18.538;2023-08-24T17:08:59;97382.39093751901;;;31.315753546589985
77385;BMP280;66444;49.680;18.538;2023-08-24T17:14:02;97378.95325015836;;;30.166231095418333
77385;BMP280;66444;49.680;18.538;2023-08-24T17:19:05;97371.6468628807;;;28.975880859512834
77385;BMP280;66444;49.680;18.538;2023-08-24T17:24:07;97385.50342306856;;;27.967630790965632
77385;BMP280;66444;49.680;18.538;2023-08-24T17:29:10;97386.97536749668;;;27.172014552168548
77385;BMP280;66444;49.680;18.538;2023-08-24T17:34:18;97392.55697603278;;;26.25966652436182
77385;BMP280;66444;49.680;18.538;2023-08-24T17:39:21;97378.73194454462;;;25.4383920524735
77385;BMP280;66444;49.680;18.538;2023-08-24T17:44:24;97378.69978476816;;;24.81980056185275
77385;BMP280;66444;49.680;18.538;2023-08-24T17:49:27;97379.90297612421;;;24.246765584498643
77385;BMP280;66444;49.680;18.538;2023-08-24T17:54:30;97387.04512734988;;;23.71423283643089
77385;BMP280;66444;49.680;18.538;2023-08-24T17:59:34;97387.556693318;;;23.283087894832715
77385;BMP280;66444;49.680;18.538;2023-08-24T18:04:37;97388.65186306414;;;22.89248499656096
77385;BMP280;66444;49.680;18.538;2023-08-24T18:09:40;97403.29973350665;;;22.628681698255242
77385;BMP280;66444;49.680;18.538;2023-08-24T18:14:43;97428.57480575718;;;22.435892411367966
77385;BMP280;66444;49.680;18.538;2023-08-24T18:19:47;97431.79734765076;;;22.222799736447634
77385;BMP280;66444;49.680;18.538;2023-08-24T18:24:50;97425.34534304694;;;21.99954877840355
77385;BMP280;66444;49.680;18.538;2023-08-24T18:29:58;97412.92778465734;;;21.664651211956517
77385;BMP280;66444;49.680;18.538;2023-08-24T18:35:01;97409.28524106772;;;21.370326358452438
77385;BMP280;66444;49.680;18.538;2023-08-24T18:40:12;97406.65190605605;;;21.136882378952578
77385;BMP280;66444;49.680;18.538;2023-08-24T18:45:15;97407.81407172437;;;20.928802363714205
77385;BMP280;66444;49.680;18.538;2023-08-24T18:50:23;97399.66966053045;;;20.7308635127265
77385;BMP280;66444;49.680;18.538;2023-08-24T18:55:27;97398.50544797188;;;20.50753725725226
77385;BMP280;66444;49.680;18.538;2023-08-24T19:00:41;97385.80581218739;;;20.24359169942327
77385;BMP280;66444;49.680;18.538;2023-08-24T19:05:44;97391.42486417748;;;20.101460649026556
77385;BMP280;66444;49.680;18.538;2023-08-24T19:10:47;97374.61497818423;;;19.989783050864936
77385;BMP280;66444;49.680;18.538;2023-08-24T19:15:50;97370.13340602745;;;19.88825551690534
77385;BMP280;66444;49.680;18.538;2023-08-24T19:20:53;97376.80419742678;;;19.807031813357025
77385;BMP280;66444;49.680;18.538;2023-08-24T19:25:56;97363.50210192631;;;19.664886746555567
77385;BMP280;66444;49.680;18.538;2023-08-24T19:31:00;97364.31392859324;;;19.634426495665686
77385;BMP280;66444;49.680;18.538;2023-08-24T19:36:04;97363.59655395277;;;19.593812501849605
77385;BMP280;66444;49.680;18.538;2023-08-24T19:41:07;97360.58539146207;;;19.537967652082443
77385;BMP280;66444;49.680;18.538;2023-08-24T19:46:10;97359.91179819539;;;19.46181444916874
77385;BMP280;66444;49.680;18.538;2023-08-24T19:51:14;97359.2358606671;;;19.38565993658267
77385;BMP280;66444;49.680;18.538;2023-08-24T19:56:17;97355.49923153751;;;19.289195673866196
77385;BMP280;66444;49.680;18.538;2023-08-24T20:01:21;97358.68280513881;;;19.202883762912826
77385;BMP280;66444;49.680;18.538;2023-08-24T20:06:25;97355.7044928643;;;19.11149284718558
77385;BMP280;66444;49.680;18.538;2023-08-24T20:11:30;97350.35123397528;;;19.075951426196845
77385;BMP280;66444;49.680;18.538;2023-08-24T20:16:40;97350.42899754035;;;19.00486772856675
77385;BMP280;66444;49.680;18.538;2023-08-24T20:21:44;97351.30643160806;;;18.90331761003472
77385;BMP280;66444;49.680;18.538;2023-08-24T20:26:48;97363.69001037942;;;18.84238642132841
77385;BMP280;66444;49.680;18.538;2023-08-24T20:31:52;97367.55040682698;;;18.832231141719966
77385;BMP280;66444;49.680;18.538;2023-08-24T20:36:57;97373.70614851164;;;18.837308784434573
77385;BMP280;66444;49.680;18.538;2023-08-24T20:42:17;97352.24821293134;;;18.730677065066992
77385;BMP280;66444;49.680;18.538;2023-08-24T20:47:22;97365.38896372184;;;18.67482133046724
77385;BMP280;66444;49.680;18.538;2023-08-24T20:52:27;97361.99303766087;;;18.598653284600005
77385;BMP280;66444;49.680;18.538;2023-08-24T20:57:31;97361.6260099746;;;18.578341584512962
77385;BMP280;66444;49.680;18.538;2023-08-24T21:02:35;97348.5850119587;;;18.527561926841734
77385;BMP280;66444;49.680;18.538;2023-08-24T21:07:41;97334.44316913055;;;18.41584463105537
77385;BMP280;66444;49.680;18.538;2023-08-24T21:12:45;97330.67585112466;;;18.319359244778752
77385;BMP280;66444;49.680;18.538;2023-08-24T21:17:50;97324.5818021402;;;18.243185087107122
77385;BMP280;66444;49.680;18.538;2023-08-24T21:22:54;97304.25983648357;;;18.161931208707394
77385;BMP280;66444;49.680;18.538;2023-08-24T21:27:59;97306.46880378986;;;18.28381146751344
77385;BMP280;66444;49.680;18.538;2023-08-24T21:33:03;97298.8175346003;;;18.23302843379788
77385;BMP280;66444;49.680;18.538;2023-08-24T21:38:08;97303.46637739385;;;18.192401587730274
77385;BMP280;66444;49.680;18.538;2023-08-24T21:43:22;97305.79030562926;;;18.172088024998082
77385;BMP280;66444;49.680;18.538;2023-08-24T21:48:37;97299.66846789191;;;18.13146062013693
77385;BMP280;66444;49.680;18.538;2023-08-24T21:53:41;97298.19235291588;;;18.05020469282754
77385;BMP280;66444;49.680;18.538;2023-08-24T21:58:46;97288.21729513507;;;18.01973333591595
77385;BMP280;66444;49.680;18.538;2023-08-24T22:03:55;97284.78697658602;;;17.979104534070938